createdAt,value
2022-12-04T00:01:09.810Z,1.75
2022-12-04T00:03:36.715Z,1.90
2022-12-04T00:06:11.487Z,1.98
2022-12-04T00:08:38.282Z,2.00
2022-12-04T00:11:05.651Z,1.80
2022-12-04T00:13:32.992Z,1.88
2022-12-04T00:15:59.738Z,1.95
2022-12-04T00:18:26.915Z,1.88
2022-12-04T00:20:53.633Z,2.10
2022-12-04T00:23:21.408Z,1.90
2022-12-04T00:25:49.558Z,2.10
2022-12-04T00:28:16.977Z,1.90
2022-12-04T00:30:44.434Z,1.98
2022-12-04T00:33:12.207Z,2.10
2022-12-04T00:35:39.031Z,1.83
2022-12-04T00:38:05.792Z,1.85
2022-12-04T00:40:32.546Z,1.98
2022-12-04T00:42:59.306Z,2.00
2022-12-04T00:45:26.121Z,2.22
2022-12-04T00:47:53.273Z,2.00
2022-12-04T00:50:20.456Z,1.90
2022-12-04T00:52:47.162Z,1.90
2022-12-04T00:55:13.914Z,2.10
2022-12-04T00:57:40.680Z,1.70
2022-12-04T01:00:08.084Z,2.10
2022-12-04T01:02:34.871Z,1.77
2022-12-04T01:05:01.969Z,2.00
2022-12-04T01:07:28.703Z,2.20
2022-12-04T01:09:55.703Z,2.10
2022-12-04T01:12:24.116Z,1.90
2022-12-04T01:14:50.813Z,1.85
2022-12-04T01:17:17.635Z,1.90
2022-12-04T01:19:44.385Z,2.13
2022-12-04T01:22:11.102Z,1.90
2022-12-04T01:24:37.820Z,1.92
2022-12-04T01:27:04.552Z,2.15
2022-12-04T01:29:31.293Z,2.60
2022-12-04T01:31:58.101Z,2.10
2022-12-04T01:34:25.396Z,2.20
2022-12-04T01:36:52.611Z,2.15
2022-12-04T01:39:19.615Z,2.15
2022-12-04T01:41:46.354Z,2.30
2022-12-04T01:44:14.664Z,2.20
2022-12-04T01:46:41.852Z,1.83
2022-12-04T01:49:09.848Z,2.40
2022-12-04T01:51:39.516Z,2.10
2022-12-04T01:54:09.324Z,2.33
2022-12-04T01:57:11.185Z,2.15
2022-12-04T01:59:41.468Z,2.10
2022-12-04T02:02:13.293Z,1.98
2022-12-04T02:04:40.550Z,2.20
2022-12-04T02:07:07.358Z,2.60
2022-12-04T02:09:34.143Z,2.10
2022-12-04T02:12:09.044Z,2.38
2022-12-04T02:15:07.018Z,2.40
2022-12-04T02:17:53.930Z,2.22
2022-12-04T02:20:38.004Z,2.40
2022-12-04T02:23:16.698Z,2.70
2022-12-04T02:25:49.313Z,2.38
2022-12-04T02:28:32.338Z,2.22
2022-12-04T02:31:00.037Z,2.30
2022-12-04T02:33:33.443Z,2.42
2022-12-04T02:36:15.054Z,2.20
2022-12-04T02:39:12.461Z,2.60
2022-12-04T02:41:52.531Z,2.85
2022-12-04T02:44:28.667Z,2.45
2022-12-04T02:47:01.049Z,2.55
2022-12-04T02:49:34.958Z,2.47
2022-12-04T02:52:01.709Z,2.80
2022-12-04T02:54:36.420Z,2.50
2022-12-04T02:57:04.490Z,2.55
2022-12-04T02:59:36.844Z,2.88
2022-12-04T03:02:14.644Z,2.67
2022-12-04T03:04:41.445Z,2.33
2022-12-04T03:07:16.552Z,2.42
2022-12-04T03:09:52.642Z,2.50
2022-12-04T03:12:30.254Z,2.28
2022-12-04T03:15:08.870Z,2.38
2022-12-04T03:17:38.872Z,2.20
2022-12-04T03:20:08.071Z,2.28
2022-12-04T03:22:34.825Z,2.40
2022-12-04T03:25:01.951Z,2.58
2022-12-04T03:27:36.516Z,2.97
2022-12-04T03:30:16.917Z,2.53
2022-12-04T03:32:50.479Z,2.70
2022-12-04T03:35:38.427Z,2.95
2022-12-04T03:38:25.636Z,2.55
2022-12-04T03:40:57.823Z,2.60
2022-12-04T03:43:47.139Z,2.60
2022-12-04T03:46:21.621Z,2.53
2022-12-04T03:49:11.700Z,2.60
2022-12-04T03:52:00.459Z,2.85
2022-12-04T03:54:35.478Z,2.88
2022-12-04T03:57:18.226Z,2.08
2022-12-04T03:59:55.980Z,2.70
2022-12-04T04:02:24.487Z,2.75
2022-12-04T04:04:53.243Z,2.38
2022-12-04T04:07:29.056Z,2.50
2022-12-04T04:09:59.854Z,2.35
2022-12-04T04:12:28.652Z,2.70
2022-12-04T04:15:15.965Z,2.50
2022-12-04T04:18:03.515Z,2.65
2022-12-04T04:21:03.864Z,2.38
2022-12-04T04:23:57.612Z,2.92
2022-12-04T04:26:24.455Z,2.53
2022-12-04T04:28:51.186Z,2.90
2022-12-04T04:31:38.175Z,2.97
2022-12-04T04:37:14.943Z,2.88
2022-12-04T04:40:00.213Z,2.60
2022-12-04T04:42:35.275Z,2.67
2022-12-04T04:45:08.503Z,2.80
2022-12-04T04:48:14.952Z,2.47
2022-12-04T04:50:41.736Z,2.75
2022-12-04T04:53:23.398Z,2.70
2022-12-04T04:55:50.108Z,2.60
2022-12-04T04:58:18.397Z,2.38
2022-12-04T05:01:03.182Z,2.78
2022-12-04T05:03:30.133Z,2.85
2022-12-04T05:05:56.930Z,2.30
2022-12-04T05:08:23.745Z,2.35
2022-12-04T05:10:50.485Z,2.60
2022-12-04T05:13:17.642Z,2.80
2022-12-04T05:15:44.469Z,2.60
2022-12-04T05:18:11.247Z,2.45
2022-12-04T05:20:41.084Z,2.40
2022-12-04T05:23:07.891Z,2.45
2022-12-04T05:25:35.395Z,2.67
2022-12-04T05:28:02.988Z,2.60
2022-12-04T05:30:29.723Z,2.58
2022-12-04T05:32:56.439Z,2.63
2022-12-04T05:35:23.164Z,2.58
2022-12-04T05:37:49.956Z,2.58
2022-12-04T05:40:16.853Z,2.30
2022-12-04T05:42:43.617Z,2.30
2022-12-04T05:45:10.423Z,2.45
2022-12-04T05:47:43.709Z,2.42
2022-12-04T05:50:11.649Z,2.65
2022-12-04T05:52:39.109Z,2.40
2022-12-04T05:55:07.272Z,2.50
2022-12-04T05:57:33.986Z,2.47
2022-12-04T06:00:00.690Z,2.30
2022-12-04T06:02:27.472Z,2.22
2022-12-04T06:04:54.264Z,2.30
2022-12-04T06:07:21.000Z,2.30
2022-12-04T06:09:47.729Z,2.70
2022-12-04T06:12:14.482Z,2.38
2022-12-04T06:14:41.352Z,2.88
2022-12-04T06:17:08.709Z,2.70
2022-12-04T06:19:36.800Z,2.38
2022-12-04T06:22:03.879Z,2.40
2022-12-04T06:24:30.625Z,2.40
2022-12-04T06:27:26.211Z,2.35
2022-12-04T06:29:44.985Z,2.83
2022-12-04T06:32:14.077Z,2.58
2022-12-04T06:34:44.711Z,2.47
2022-12-04T06:37:11.432Z,2.53
2022-12-04T06:39:38.621Z,2.50
2022-12-04T06:42:05.388Z,2.53
2022-12-04T06:44:32.196Z,2.50
2022-12-04T06:47:01.041Z,1.98
2022-12-04T06:49:28.081Z,2.38
2022-12-04T06:51:54.774Z,2.25
2022-12-04T06:54:21.502Z,2.38
2022-12-04T06:56:48.743Z,2.60
2022-12-04T06:59:15.501Z,2.45
2022-12-04T07:01:42.388Z,2.55
2022-12-04T07:04:09.249Z,2.30
2022-12-04T07:06:38.466Z,2.22
2022-12-04T07:09:08.534Z,2.20
2022-12-04T07:11:35.435Z,2.30
2022-12-04T07:14:03.271Z,2.10
2022-12-04T07:16:33.973Z,2.20
2022-12-04T07:19:03.539Z,2.40
2022-12-04T07:21:30.858Z,2.60
2022-12-04T07:23:59.149Z,2.55
2022-12-04T07:26:26.474Z,2.50
2022-12-04T07:28:54.038Z,2.50
2022-12-04T07:31:21.835Z,2.17
2022-12-04T07:33:48.890Z,2.47
2022-12-04T07:36:17.649Z,2.30
2022-12-04T07:38:44.361Z,2.25
2022-12-04T07:41:11.871Z,2.60
2022-12-04T07:43:39.014Z,2.58
2022-12-04T07:46:08.703Z,2.70
2022-12-04T07:48:35.481Z,2.50
2022-12-04T07:51:08.468Z,2.20
2022-12-04T07:53:37.190Z,2.45
2022-12-04T07:56:04.790Z,2.40
2022-12-04T07:58:31.960Z,2.65
2022-12-04T08:01:18.841Z,2.50
2022-12-04T08:03:48.547Z,2.47
2022-12-04T08:06:16.794Z,2.22
2022-12-04T08:08:43.525Z,2.70
2022-12-04T08:11:11.883Z,2.53
2022-12-04T08:13:39.281Z,2.50
2022-12-04T08:16:08.433Z,2.50
2022-12-04T08:18:35.187Z,2.53
2022-12-04T08:21:08.471Z,2.50
2022-12-04T08:23:35.811Z,2.53
2022-12-04T08:26:03.111Z,2.30
2022-12-04T08:28:29.846Z,2.60
2022-12-04T08:31:01.637Z,2.67
2022-12-04T08:33:29.898Z,2.28
2022-12-04T08:35:56.668Z,2.50
2022-12-04T08:38:23.456Z,2.30
2022-12-04T08:40:50.229Z,2.70
2022-12-04T08:43:16.941Z,2.30
2022-12-04T08:45:43.767Z,1.98
2022-12-04T08:48:10.481Z,2.33
2022-12-04T08:50:44.603Z,2.30
2022-12-04T08:53:11.634Z,2.50
2022-12-04T08:55:38.664Z,2.10
2022-12-04T08:58:05.837Z,2.17
2022-12-04T09:00:33.336Z,2.33
2022-12-04T09:03:00.045Z,2.55
2022-12-04T09:05:26.793Z,2.65
2022-12-04T09:07:53.671Z,1.98
2022-12-04T09:10:20.446Z,2.63
2022-12-04T09:12:47.178Z,2.30
2022-12-04T09:15:13.903Z,2.38
2022-12-04T09:17:40.624Z,2.85
2022-12-04T09:20:10.027Z,2.08
2022-12-04T09:23:02.377Z,2.58
2022-12-04T09:25:26.004Z,2.55
2022-12-04T09:27:52.944Z,2.30
2022-12-04T09:30:20.172Z,2.67
2022-12-04T09:32:46.908Z,2.75
2022-12-04T09:35:13.652Z,2.75
2022-12-04T09:37:40.626Z,2.78
2022-12-04T09:40:12.278Z,2.50
2022-12-04T09:42:55.862Z,2.72
2022-12-04T09:45:23.356Z,2.40
2022-12-04T09:47:52.329Z,2.50
2022-12-04T09:50:25.525Z,2.70
2022-12-04T09:53:03.951Z,2.67
2022-12-04T09:55:36.499Z,2.40
2022-12-04T09:58:06.659Z,2.50
2022-12-04T10:00:38.624Z,2.50
2022-12-04T10:03:08.945Z,2.42
2022-12-04T10:05:54.147Z,2.53
2022-12-04T10:08:20.942Z,2.40
2022-12-04T10:11:07.047Z,2.67
2022-12-04T10:13:56.864Z,2.60
2022-12-04T10:16:46.602Z,2.58
2022-12-04T10:19:33.651Z,2.65
2022-12-04T10:22:13.634Z,2.25
2022-12-04T10:25:01.618Z,2.88
2022-12-04T10:27:28.535Z,2.53
2022-12-04T10:30:22.407Z,2.45
2022-12-04T10:33:00.975Z,2.45
2022-12-04T10:35:29.519Z,2.83
2022-12-04T10:38:11.154Z,2.65
2022-12-04T10:40:44.136Z,2.45
2022-12-04T10:43:33.516Z,2.42
2022-12-04T10:46:00.297Z,2.97
2022-12-04T10:48:38.505Z,2.60
2022-12-04T10:51:08.683Z,2.83
2022-12-04T10:53:37.207Z,2.80
2022-12-04T10:56:11.804Z,2.53
2022-12-04T10:58:38.739Z,2.53
2022-12-04T11:01:11.859Z,2.75
2022-12-04T11:03:38.936Z,2.92
2022-12-04T11:06:07.746Z,2.72
2022-12-04T11:08:44.956Z,2.83
2022-12-04T11:11:14.041Z,2.90
2022-12-04T11:13:41.092Z,3.20
2022-12-04T11:16:09.159Z,2.60
2022-12-04T11:18:49.712Z,2.45
2022-12-04T11:21:26.833Z,2.88
2022-12-04T11:23:53.564Z,2.47
2022-12-04T11:26:38.174Z,2.33
2022-12-04T11:29:05.758Z,2.30
2022-12-04T11:31:32.827Z,2.60
2022-12-04T11:34:03.839Z,2.40
2022-12-04T11:36:34.581Z,2.22
2022-12-04T11:39:19.157Z,2.30
2022-12-04T11:41:45.909Z,2.20
2022-12-04T11:44:25.339Z,2.50
2022-12-04T11:46:53.967Z,1.92
2022-12-04T11:49:22.498Z,2.42
2022-12-04T11:52:17.285Z,2.33
2022-12-04T11:54:58.978Z,2.25
2022-12-04T11:57:31.435Z,2.22
2022-12-04T12:00:13.637Z,2.20
2022-12-04T12:03:18.199Z,2.03
2022-12-04T12:06:21.021Z,4.03
2022-12-04T12:08:59.734Z,2.58
2022-12-04T12:11:34.502Z,2.08
2022-12-04T12:14:23.901Z,2.25
2022-12-04T12:17:15.984Z,2.58
2022-12-04T12:20:16.596Z,2.35
2022-12-04T12:22:56.904Z,2.28
2022-12-04T12:25:32.427Z,1.77
2022-12-04T12:28:11.625Z,2.33
2022-12-04T12:30:44.133Z,1.98
2022-12-04T12:33:20.779Z,2.53
2022-12-04T12:36:09.329Z,2.65
2022-12-04T12:38:51.602Z,2.10
2022-12-04T12:41:34.603Z,2.30
2022-12-04T12:44:16.066Z,1.90
2022-12-04T12:46:49.046Z,2.30
2022-12-04T12:49:29.987Z,2.55
2022-12-04T12:52:36.581Z,2.10
2022-12-04T12:55:23.416Z,2.00
2022-12-04T12:58:07.570Z,1.90
2022-12-04T13:00:39.195Z,2.05
2022-12-04T13:03:26.743Z,2.15
2022-12-04T13:05:55.897Z,2.13
2022-12-04T13:08:42.520Z,1.95
2022-12-04T13:11:21.791Z,2.25
2022-12-04T13:14:15.198Z,2.10
2022-12-04T13:16:54.073Z,2.00
2022-12-04T13:19:29.646Z,2.08
2022-12-04T13:22:08.525Z,2.30
2022-12-04T13:25:13.621Z,1.58
2022-12-04T13:28:17.488Z,2.10
2022-12-04T13:30:50.706Z,2.83
2022-12-04T13:33:49.859Z,2.10
2022-12-04T13:36:28.923Z,2.67
2022-12-04T13:39:03.041Z,2.30
2022-12-04T13:41:30.124Z,2.22
2022-12-04T13:44:00.645Z,10.52
2022-12-04T13:46:40.740Z,5.28
2022-12-04T13:49:48.802Z,5.93
2022-12-04T13:52:37.582Z,4.57
2022-12-04T13:55:07.983Z,4.50
2022-12-04T13:57:35.038Z,5.35
2022-12-04T14:00:08.178Z,4.70
2022-12-04T14:02:36.812Z,4.55
2022-12-04T14:05:07.313Z,4.15
2022-12-04T14:07:37.955Z,4.13
2022-12-04T14:10:14.761Z,3.60
2022-12-04T14:12:42.857Z,4.55
2022-12-04T14:15:23.816Z,3.63
2022-12-04T14:17:57.710Z,3.75
2022-12-04T14:20:25.957Z,3.80
2022-12-04T14:22:52.720Z,4.03
2022-12-04T14:25:19.406Z,3.88
2022-12-04T14:27:46.598Z,3.40
2022-12-04T14:30:17.755Z,3.63
2022-12-04T14:32:44.485Z,3.78
2022-12-04T14:35:19.377Z,3.38
2022-12-04T14:37:54.851Z,3.53
2022-12-04T14:40:27.196Z,3.40
2022-12-04T14:42:53.953Z,3.25
2022-12-04T14:45:22.299Z,2.95
2022-12-04T14:47:57.215Z,2.80
2022-12-04T14:50:39.570Z,3.10
2022-12-04T14:53:09.373Z,2.70
2022-12-04T14:55:47.208Z,3.55
2022-12-04T14:58:34.507Z,2.58
2022-12-04T15:01:06.844Z,2.50
2022-12-04T15:03:42.865Z,2.40
2022-12-04T15:06:15.838Z,2.50
2022-12-04T15:08:49.498Z,2.60
2022-12-04T15:11:38.793Z,2.70
2022-12-04T15:14:13.735Z,2.30
2022-12-04T15:16:40.601Z,2.55
2022-12-04T15:19:17.135Z,2.30
2022-12-04T15:21:43.881Z,2.45
2022-12-04T15:24:11.533Z,2.45
2022-12-04T15:26:39.597Z,2.25
2022-12-04T15:29:06.543Z,2.40
2022-12-04T15:31:56.685Z,1.90
2022-12-04T15:34:55.094Z,2.13
2022-12-04T15:37:27.076Z,1.92
2022-12-04T15:39:54.241Z,2.28
2022-12-04T15:42:23.893Z,1.98
2022-12-04T15:45:09.165Z,2.35
2022-12-04T15:47:41.808Z,2.20
2022-12-04T15:50:27.551Z,1.92
2022-12-04T15:53:06.081Z,2.00
2022-12-04T15:55:35.348Z,2.40
2022-12-04T15:58:07.727Z,2.28
2022-12-04T16:00:40.411Z,1.90
2022-12-04T16:03:27.525Z,2.13
2022-12-04T16:06:15.334Z,1.90
2022-12-04T16:08:42.953Z,1.70
2022-12-04T16:11:21.523Z,1.90
2022-12-04T16:13:50.400Z,1.77
2022-12-04T16:16:19.778Z,1.98
2022-12-04T16:18:46.511Z,1.98
2022-12-04T16:21:18.271Z,1.95
2022-12-04T16:23:45.238Z,2.00
2022-12-04T16:26:13.279Z,1.83
2022-12-04T16:28:40.343Z,2.20
2022-12-04T16:31:07.546Z,2.30
2022-12-04T16:33:34.337Z,2.60
2022-12-04T16:36:01.068Z,1.98
2022-12-04T16:38:27.783Z,2.50
2022-12-04T16:40:54.493Z,2.38
2022-12-04T16:43:21.265Z,2.25
2022-12-04T16:45:59.810Z,2.22
2022-12-04T16:48:27.564Z,2.70
2022-12-04T16:50:54.269Z,2.50
2022-12-04T16:53:22.065Z,2.03
2022-12-04T16:55:50.216Z,2.60
2022-12-04T16:58:17.312Z,2.10
2022-12-04T17:00:45.068Z,2.20
2022-12-04T17:03:17.935Z,2.38
2022-12-04T17:05:44.746Z,2.15
2022-12-04T17:08:12.263Z,2.05
2022-12-04T17:10:39.143Z,2.50
2022-12-04T17:13:05.889Z,2.03
2022-12-04T17:15:32.774Z,2.22
2022-12-04T17:17:59.510Z,2.50
2022-12-04T17:20:26.351Z,2.40
2022-12-04T17:22:53.074Z,2.20
2022-12-04T17:25:19.857Z,2.17
2022-12-04T17:27:46.569Z,2.00
2022-12-04T17:30:14.701Z,2.10
2022-12-04T17:32:42.391Z,1.88
2022-12-04T17:35:14.705Z,1.92
2022-12-04T17:37:42.299Z,2.05
2022-12-04T17:40:16.024Z,2.28
2022-12-04T17:42:44.520Z,1.95
2022-12-04T17:45:12.338Z,2.13
2022-12-04T17:47:39.850Z,2.15
2022-12-04T17:50:07.196Z,1.80
2022-12-04T17:52:33.970Z,2.22
2022-12-04T17:55:00.909Z,2.38
2022-12-04T17:57:28.028Z,2.10
2022-12-04T17:59:54.839Z,1.92
2022-12-04T18:02:21.685Z,1.92
2022-12-04T18:04:48.527Z,2.65
2022-12-04T18:07:15.244Z,2.00
2022-12-04T18:09:43.377Z,2.13
2022-12-04T18:12:10.125Z,2.03
2022-12-04T18:14:38.201Z,2.30
2022-12-04T18:17:04.971Z,2.53
2022-12-04T18:19:31.902Z,2.05
2022-12-04T18:21:58.713Z,2.28
2022-12-04T18:24:25.809Z,1.98
2022-12-04T18:26:52.670Z,1.75
2022-12-04T18:29:21.238Z,1.80
2022-12-04T18:31:48.195Z,1.60
2022-12-04T18:34:15.029Z,2.88
2022-12-04T18:36:42.376Z,2.08
2022-12-04T18:39:16.763Z,2.42
2022-12-04T18:41:44.870Z,2.00
2022-12-04T18:44:12.419Z,1.95
2022-12-04T18:46:39.798Z,1.55
2022-12-04T18:49:06.833Z,1.98
2022-12-04T18:51:37.912Z,1.60
2022-12-04T18:54:14.169Z,2.05
2022-12-04T18:56:41.125Z,2.38
2022-12-04T18:59:10.650Z,2.03
2022-12-04T19:01:38.214Z,1.77
2022-12-04T19:04:05.860Z,1.95
2022-12-04T19:06:36.580Z,2.03
2022-12-04T19:09:05.881Z,1.92
2022-12-04T19:11:33.003Z,1.70
2022-12-04T19:14:00.188Z,1.48
2022-12-04T19:16:27.051Z,1.73
2022-12-04T19:18:54.179Z,1.95
2022-12-04T19:21:21.338Z,2.17
2022-12-04T19:23:56.802Z,1.98
2022-12-04T19:26:23.858Z,1.55
2022-12-04T19:28:51.940Z,2.05
2022-12-04T19:31:24.075Z,1.70
2022-12-04T19:33:51.522Z,1.60
2022-12-04T19:36:19.044Z,1.92
2022-12-04T19:38:46.718Z,1.83
2022-12-04T19:41:21.449Z,2.08
2022-12-04T19:43:49.494Z,1.75
2022-12-04T19:46:17.722Z,1.75
2022-12-04T19:48:48.932Z,1.60
2022-12-04T19:51:20.280Z,1.60
2022-12-04T19:53:47.534Z,1.80
2022-12-04T19:56:20.047Z,1.50
2022-12-04T19:58:46.871Z,1.90
2022-12-04T20:01:16.702Z,1.60
2022-12-04T20:03:45.274Z,1.35
2022-12-04T20:06:18.186Z,1.33
2022-12-04T20:08:45.589Z,1.42
2022-12-04T20:11:17.056Z,1.55
2022-12-04T20:13:45.010Z,1.45
2022-12-04T20:16:13.265Z,1.20
2022-12-04T20:18:40.299Z,1.63
2022-12-04T20:21:11.087Z,1.30
2022-12-04T20:23:42.115Z,1.48
2022-12-04T20:26:10.327Z,1.30
2022-12-04T20:28:37.280Z,1.33
2022-12-04T20:31:26.626Z,1.27
2022-12-04T20:33:54.118Z,1.40
2022-12-04T20:36:22.142Z,1.23
2022-12-04T20:38:49.862Z,1.40
2022-12-04T20:41:17.129Z,1.38
2022-12-04T20:43:45.782Z,1.60
2022-12-04T20:46:18.699Z,1.30
2022-12-04T20:48:50.110Z,1.08
2022-12-04T20:51:21.413Z,1.33
2022-12-04T20:53:48.520Z,1.50
2022-12-04T20:56:17.057Z,1.15
2022-12-04T20:58:44.336Z,1.40
2022-12-04T21:01:12.852Z,1.30
2022-12-04T21:03:39.704Z,1.50
2022-12-04T21:06:23.796Z,1.30
2022-12-04T21:08:53.818Z,1.30
2022-12-04T21:11:21.494Z,1.45
2022-12-04T21:14:06.815Z,1.50
2022-12-04T21:16:33.832Z,1.45
2022-12-04T21:19:00.811Z,1.20
2022-12-04T21:21:28.081Z,1.20
2022-12-04T21:23:54.803Z,1.20
2022-12-04T21:26:22.382Z,1.30
2022-12-04T21:28:49.147Z,1.23
2022-12-04T21:31:17.647Z,1.10
2022-12-04T21:33:44.420Z,1.20
2022-12-04T21:36:11.238Z,1.15
2022-12-04T21:38:38.694Z,1.38
2022-12-04T21:41:07.219Z,1.40
2022-12-04T21:43:34.349Z,1.25
2022-12-04T21:46:09.381Z,1.10
2022-12-04T21:48:37.308Z,1.33
2022-12-04T21:51:21.300Z,1.05
2022-12-04T21:53:55.298Z,1.15
2022-12-04T21:56:23.234Z,1.10
2022-12-04T21:58:50.458Z,1.30
2022-12-04T22:01:19.509Z,1.35
2022-12-04T22:03:47.119Z,1.00
2022-12-04T22:06:14.731Z,1.35
2022-12-04T22:08:41.657Z,1.23
2022-12-04T22:11:09.349Z,1.30
2022-12-04T22:13:36.971Z,1.50
2022-12-04T22:16:09.557Z,1.30
2022-12-04T22:18:36.462Z,1.25
2022-12-04T22:21:07.139Z,1.17
2022-12-04T22:23:34.140Z,1.10
2022-12-04T22:26:14.493Z,0.90
2022-12-04T22:28:41.414Z,1.00
2022-12-04T22:31:15.400Z,1.30
2022-12-04T22:33:42.325Z,1.13
2022-12-04T22:36:13.626Z,1.20
2022-12-04T22:38:52.719Z,0.95
2022-12-04T22:41:27.588Z,1.20
2022-12-04T22:43:54.403Z,1.05
2022-12-04T22:46:21.639Z,0.80
2022-12-04T22:48:48.438Z,1.00
2022-12-04T22:51:17.069Z,1.25
2022-12-04T22:53:45.876Z,1.10
2022-12-04T22:56:14.838Z,1.23
2022-12-04T22:58:41.693Z,1.00
2022-12-04T23:01:32.508Z,1.10
2022-12-04T23:03:59.585Z,1.20
2022-12-04T23:06:27.588Z,1.08
2022-12-04T23:08:59.039Z,1.27
2022-12-04T23:11:26.079Z,1.00
2022-12-04T23:13:57.383Z,1.25
2022-12-04T23:16:24.528Z,0.90
2022-12-04T23:18:52.328Z,1.20
2022-12-04T23:21:19.986Z,0.90
2022-12-04T23:23:47.076Z,1.00
2022-12-04T23:26:21.731Z,1.25
2022-12-04T23:28:48.452Z,1.13
2022-12-04T23:31:15.501Z,1.00
2022-12-04T23:33:42.430Z,1.00
2022-12-04T23:36:10.719Z,1.00
2022-12-04T23:38:39.766Z,0.90
2022-12-04T23:41:38.519Z,1.20
2022-12-04T23:44:05.322Z,1.00
2022-12-04T23:46:32.628Z,0.90
2022-12-04T23:48:59.970Z,1.00
2022-12-04T23:51:26.998Z,1.13
2022-12-04T23:53:55.460Z,1.10
2022-12-04T23:56:25.679Z,0.98
2022-12-04T23:58:54.659Z,1.00
